Latest Weather Observations for Yarram Airport

IDV60801

Issued at 9:02 am EDT Tuesday 23 December 2014 (issued every 30 minutes, with the page automatically refreshed every 10 minutes)

About weather observations | Map of weather stations | Latest weather observations for VIC | Other Formats
Station Details ID: 085151 Name: YARRAM AIRPORT Lat: -38.56 Lon: 146.75 Height: 17.9 m
Data from the previous 72 hours. | See also: Recent months at Yarram Airport
Date/Time
EDT
Temp
°C
App
Temp
°C
Dew
Point
Rel
Hum
%
Delta-T
°C
Wind Press
QNH
hPa
Press
MSL
hPa
Rain
since 9 am
mm
Dir
 
Spd
km/h
Gust
km/h
Spd
kts
Gust
kts
23/09:00am 21.4 25.0 19.7 90 1.1 CALM 0 0 0 0 1007.4 1007.4 -
23/08:30am 19.8 22.7 19.0 95 0.5 WNW 2 7 1 4 1007.4 1007.4 -
23/08:00am 19.6 21.3 19.4 99 0.1 NNE 9 13 5 7 1007.3 1007.3 -
23/07:30am 18.9 20.8 18.9 100 0.0 N 7 9 4 5 1007.2 1007.2 -
23/07:00am 18.8 22.0 18.8 100 0.0 CALM 0 0 0 0 1007.0 1007.0 -
23/06:30am 18.5 20.2 18.5 100 0.0 ENE 7 9 4 5 1007.2 1007.2 -
23/06:00am 18.4 21.4 18.4 100 0.0 CALM 0 0 0 0 1007.0 1007.0 -
23/05:30am 18.3 20.1 18.3 100 0.0 WNW 6 7 3 4 1006.9 1006.9 -
23/05:00am 18.3 20.9 18.3 100 0.0 WNW 2 6 1 3 1006.6 1006.6 -
23/04:30am 18.4 19.7 18.4 100 0.0 WNW 9 11 5 6 1006.5 1006.5 -
23/04:00am 18.5 20.8 18.5 100 0.0 NNW 4 9 2 5 1006.4 1006.4 -
23/03:30am 18.3 20.5 18.3 100 0.0 N 4 9 2 5 1006.7 1006.7 -
23/03:00am 18.5 19.4 18.5 100 0.0 SSE 11 19 6 10 1007.4 1007.4 0.8
23/02:30am 18.3 19.9 18.3 100 0.0 SSE 7 11 4 6 1007.1 1007.1 -
23/02:00am 18.2 18.2 18.2 100 0.0 S 15 19 8 10 1007.0 1007.0 -
23/01:30am 18.1 20.1 17.9 99 0.1 SE 4 9 2 5 1006.6 1006.6 -
23/01:00am 18.0 20.7 17.8 99 0.1 CALM 0 0 0 0 1006.8 1006.8 -
23/12:30am 18.0 20.7 17.8 99 0.1 CALM 0 0 0 0 1007.0 1007.0 -
23/12:00am 18.1 19.5 17.9 99 0.1 W 7 11 4 6 1007.3 1007.3 -
 
Date/Time
EDT
Temp
°C
App
Temp
°C
Dew
Point
Rel
Hum
%
Delta-T
°C
Wind Press
QNH
hPa
Press
MSL
hPa
Rain
since 9 am
mm
Dir
 
Spd
km/h
Gust
km/h
Spd
kts
Gust
kts
22/11:30pm 18.0 19.5 18.0 100 0.0 N 7 9 4 5 1007.5 1007.5 -
22/11:00pm 18.2 19.8 18.2 100 0.0 ENE 7 9 4 5 1007.2 1007.2 -
22/10:30pm 18.2 19.8 18.2 100 0.0 E 7 11 4 6 1007.7 1007.7 -
22/10:00pm 18.4 19.3 18.4 100 0.0 ENE 11 15 6 8 1008.3 1008.3 -
22/09:30pm 18.4 20.2 18.2 99 0.1 NNE 6 11 3 6 1008.4 1008.4 -
22/09:00pm 18.6 21.5 18.3 98 0.2 CALM 0 6 0 3 1008.5 1008.5 0.0
22/08:30pm 18.6 19.7 18.1 97 0.3 E 9 11 5 6 1008.9 1008.9 -
22/08:00pm 18.8 21.7 18.3 97 0.3 CALM 0 0 0 0 1009.4 1009.4 -
22/07:30pm 18.7 20.4 18.4 98 0.2 ENE 7 11 4 6 1009.5 1009.5 -
22/07:00pm 18.8 20.1 18.5 98 0.2 ESE 9 15 5 8 1010.0 1010.0 -
22/06:30pm 18.9 20.7 18.4 97 0.3 ESE 6 13 3 7 1009.8 1009.8 -
22/06:00pm 19.0 20.6 18.2 95 0.5 SE 7 13 4 7 1010.2 1010.2 -
22/05:30pm 19.1 19.9 18.1 94 0.6 SE 11 15 6 8 1010.2 1010.2 -
22/05:00pm 19.3 19.6 17.8 91 0.9 ESE 13 19 7 10 1010.4 1010.4 -
22/04:30pm 19.6 19.9 17.9 90 1.0 SE 13 17 7 9 1010.6 1010.6 -
22/04:00pm 19.5 19.7 17.6 89 1.2 ESE 13 20 7 11 1010.9 1010.9 -
22/03:30pm 20.4 20.0 18.0 86 1.5 SE 17 20 9 11 1011.1 1011.1 -
22/03:00pm 21.4 21.0 18.0 81 2.1 SE 17 20 9 11 1011.5 1011.5 0.0
22/02:30pm 21.5 21.8 17.9 80 2.2 SE 13 22 7 12 1012.0 1012.0 -
22/02:00pm 21.2 21.2 18.0 82 2.0 SE 15 20 8 11 1012.3 - 0.0
22/01:33pm 21.6 15.4 18.2 81 2.1 WSW 48 76 26 41 1012.5 - 0.0
22/01:30pm 21.3 18.4 17.9 81 2.1 N 30 76 16 41 1012.5 - 0.0
22/01:28pm 21.9 18.8 18.3 80 2.3 N 32 76 17 41 1012.5 - 0.0
22/01:00pm 22.2 21.0 18.4 79 2.4 SE 22 28 12 15 1012.6 1012.6 0.0
22/12:30pm 22.9 21.9 18.0 74 3.1 SE 20 28 11 15 1012.9 1012.9 0.0
22/12:00pm 24.1 23.7 19.0 73 3.2 SE 19 24 10 13 1013.1 1013.1 0.0
22/11:30am 23.3 22.9 18.0 72 3.3 SE 17 20 9 11 1013.4 1013.4 0.0
22/11:00am 23.4 23.1 18.3 73 3.2 SE 17 24 9 13 1013.6 1013.6 0.0
22/10:30am 23.1 23.9 18.2 74 3.1 ESE 11 17 6 9 1013.5 1013.5 0.0
22/10:00am 22.4 23.1 18.0 76 2.7 SSE 11 20 6 11 1013.5 1013.5 0.0
22/09:30am 21.0 21.9 17.6 81 2.1 SSW 9 13 5 7 1013.7 1013.7 0.0
22/09:00am 20.5 21.9 17.7 84 1.7 S 7 17 4 9 1014.0 1014.0 0.0
22/08:30am 19.6 21.0 17.7 89 1.2 S 7 13 4 7 1014.1 1014.1 0.0
22/08:00am 18.4 19.7 17.6 95 0.5 S 7 9 4 5 1014.0 1014.0 0.0
22/07:30am 18.0 20.6 17.5 97 0.3 CALM 0 6 0 3 1013.9 1013.9 0.0
22/07:00am 17.8 20.4 17.6 99 0.1 CALM 0 0 0 0 1013.4 1013.4 0.0
22/06:30am 17.4 19.9 17.2 99 0.1 CALM 0 0 0 0 1013.1 1013.1 0.0
22/06:00am 17.2 19.7 17.2 100 0.0 CALM 0 0 0 0 1013.0 1013.0 0.0
22/05:30am 17.3 19.8 17.3 100 0.0 CALM 0 0 0 0 1012.9 1012.9 0.0
22/05:00am 17.2 19.7 17.2 100 0.0 CALM 0 0 0 0 1012.7 1012.7 0.0
22/04:30am 16.9 17.9 16.9 100 0.0 WNW 7 7 4 4 1012.8 1012.8 0.0
22/04:00am 16.9 17.9 16.9 100 0.0 W 7 9 4 5 1012.7 1012.7 0.0
22/03:30am 16.8 17.4 16.8 100 0.0 WNW 9 11 5 6 1012.9 1012.9 0.0
22/03:00am 16.2 16.6 16.2 100 0.0 WNW 9 11 5 6 1013.0 1013.0 0.0
22/02:30am 16.1 16.7 15.8 98 0.2 WNW 7 9 4 5 1013.2 1013.2 0.0
22/02:00am 17.0 17.9 16.5 97 0.3 WSW 7 9 4 5 1013.3 1013.3 0.0
22/01:30am 17.3 17.9 16.7 96 0.4 WSW 9 13 5 7 1013.4 1013.4 0.0
22/01:00am 17.2 17.5 15.9 92 0.8 WNW 9 11 5 6 1013.7 1013.7 0.0
22/12:30am 17.8 17.5 16.5 92 0.8 W 13 13 7 7 1013.7 1013.7 0.0
22/12:00am 17.2 18.3 15.7 91 0.9 WSW 4 7 2 4 1013.5 1013.5 0.0
 
Date/Time
EDT
Temp
°C
App
Temp
°C
Dew
Point
Rel
Hum
%
Delta-T
°C
Wind Press
QNH
hPa
Press
MSL
hPa
Rain
since 9 am
mm
Dir
 
Spd
km/h
Gust
km/h
Spd
kts
Gust
kts
21/11:30pm 17.3 19.2 15.8 91 0.9 CALM 0 0 0 0 1013.5 1013.5 0.0
21/11:00pm 17.4 17.2 15.7 90 1.0 NNE 11 13 6 7 1013.5 1013.5 0.0
21/10:30pm 17.0 17.1 15.5 91 0.9 N 9 11 5 6 1013.7 1013.7 0.0
21/10:00pm 17.5 17.5 15.3 87 1.3 NE 9 11 5 6 1013.6 1013.6 0.0
21/09:30pm 19.0 18.9 16.0 83 1.8 E 11 13 6 7 1013.4 1013.4 0.0
21/09:00pm 19.9 19.9 16.2 79 2.2 E 11 13 6 7 1013.0 1013.0 0.0
21/08:30pm 21.7 21.9 15.8 69 3.5 E 9 13 5 7 1012.7 1012.7 0.0
21/08:00pm 22.9 22.4 15.0 61 4.7 E 11 13 6 7 1012.4 1012.4 0.0
21/07:30pm 23.7 22.7 14.7 57 5.3 ENE 13 17 7 9 1012.3 1012.3 0.0
21/07:00pm 24.5 23.4 15.4 57 5.5 ENE 15 20 8 11 1012.0 1012.0 0.0
21/06:30pm 24.1 22.7 15.6 59 5.1 E 17 22 9 12 1012.1 1012.1 0.0
21/06:00pm 24.6 23.3 15.8 58 5.3 E 17 22 9 12 1012.2 1012.2 0.0
21/05:30pm 24.6 23.1 15.2 55 5.6 E 17 24 9 13 1012.4 1012.4 0.0
21/05:00pm 24.4 22.8 15.1 56 5.6 E 17 24 9 13 1012.7 1012.7 0.0
21/04:30pm 24.4 22.3 15.1 56 5.6 E 20 28 11 15 1013.0 1013.0 0.0
21/04:00pm 24.2 22.4 15.9 59 5.0 E 20 28 11 15 1013.3 1013.3 0.0
21/03:30pm 24.0 21.9 15.2 58 5.3 E 20 28 11 15 1013.4 1013.4 0.0
21/03:00pm 25.1 22.2 15.1 53 6.0 ESE 24 30 13 16 1013.4 1013.4 0.0
21/02:30pm 25.3 23.6 16.2 57 5.6 E 20 32 11 17 1013.5 1013.5 0.0
21/02:00pm 25.4 23.7 16.3 57 5.6 E 20 30 11 16 1013.9 1013.9 0.0
21/01:30pm 24.8 22.5 15.7 57 5.5 E 22 32 12 17 1014.0 1014.0 0.0
21/01:00pm 24.8 22.2 16.0 58 5.4 E 24 33 13 18 1014.2 1014.2 0.0
21/12:30pm 24.8 23.3 16.8 61 4.9 E 20 32 11 17 1014.3 1014.3 0.0
21/12:00pm 24.5 22.8 16.2 60 5.1 E 20 33 11 18 1014.4 1014.4 0.0
21/11:30am 24.1 23.0 15.3 58 5.3 ENE 15 22 8 12 1014.6 1014.6 0.0
21/11:00am 23.0 21.8 15.1 61 4.7 NE 15 24 8 13 1014.8 1014.8 0.0
21/10:30am 21.9 20.1 14.5 63 4.3 NE 17 22 9 12 1015.0 1015.0 0.0
21/10:00am 20.9 19.0 14.1 65 3.9 NE 17 22 9 12 1015.4 1015.4 0.0
21/09:30am 20.0 18.1 14.1 69 3.4 NE 17 24 9 13 1015.5 1015.5 0.0
21/09:00am 18.9 16.8 14.6 76 2.5 NE 19 24 10 13 1015.4 1015.4 0.0
21/08:30am 17.7 16.0 14.8 83 1.7 NE 17 24 9 13 1015.7 1015.7 0.0
21/08:00am 15.8 15.0 15.2 96 0.3 NNE 13 20 7 11 1016.1 1016.1 0.0
21/07:30am 14.7 14.9 14.7 100 0.0 NE 7 11 4 6 1016.5 1016.5 0.0
21/07:00am 13.4 13.1 13.4 100 0.0 NE 7 9 4 5 1016.3 1016.3 0.0
21/06:30am 10.8 10.3 10.8 100 0.0 NE 4 7 2 4 1016.1 1016.1 0.0
21/06:00am 9.7 8.0 9.7 100 0.0 NNE 9 13 5 7 1015.5 1015.5 0.0
21/05:30am 9.1 6.8 9.1 100 0.0 ENE 11 13 6 7 1015.2 1015.2 0.0
21/05:00am 7.6 5.7 7.6 100 0.0 NE 7 9 4 5 1015.1 1015.1 0.0
21/04:30am 8.0 6.2 8.0 100 0.0 NNE 7 13 4 7 1015.0 1015.0 0.0
21/04:00am 8.1 6.5 8.1 100 0.0 N 6 7 3 4 1015.3 1015.3 0.0
21/03:30am 7.9 6.3 7.9 100 0.0 N 6 7 3 4 1015.5 1015.5 0.0
21/03:00am 8.8 7.4 8.8 100 0.0 N 6 7 3 4 1015.7 1015.7 0.0
21/02:30am 9.3 7.8 9.3 100 0.0 N 7 9 4 5 1016.1 1016.1 0.0
21/02:00am 9.1 7.7 9.0 99 0.0 NNW 6 7 3 4 1016.5 1016.5 0.0
21/01:30am 9.5 7.7 9.4 99 0.0 WNW 9 11 5 6 1016.7 1016.7 0.0
21/01:00am 10.3 9.2 10.1 99 0.1 NW 6 7 3 4 1017.0 1017.0 0.0
21/12:30am 10.7 9.5 10.4 98 0.2 NW 7 9 4 5 1017.2 1017.2 0.0
21/12:00am 11.1 9.7 10.8 98 0.2 NW 9 11 5 6 1017.4 1017.4 0.0
 
Date/Time
EDT
Temp
°C
App
Temp
°C
Dew
Point
Rel
Hum
%
Delta-T
°C
Wind Press
QNH
hPa
Press
MSL
hPa
Rain
since 9 am
mm
Dir
 
Spd
km/h
Gust
km/h
Spd
kts
Gust
kts
20/11:30pm 12.1 11.0 12.1 100 0.0 W 9 11 5 6 1017.4 1017.4 0.0
20/11:00pm 10.6 8.9 9.8 95 0.4 NW 9 11 5 6 1017.5 1017.5 0.0
20/10:30pm 12.4 12.9 11.6 95 0.4 CALM 0 4 0 2 1017.8 1017.8 0.0
20/10:00pm 13.1 12.5 12.2 94 0.5 WSW 7 9 4 5 1017.7 1017.7 0.0
20/09:30pm 13.6 12.9 12.0 90 0.9 WSW 7 9 4 5 1017.7 1017.7 0.0
20/09:00pm 14.6 12.9 12.6 88 1.1 SW 13 17 7 9 1017.5 1017.5 0.0
20/08:30pm 16.0 14.1 12.9 82 1.7 SW 15 20 8 11 1017.3 1017.3 0.0
20/08:00pm 17.6 14.8 12.5 72 2.8 SW 19 26 10 14 1016.9 1016.9 0.0
20/07:30pm 18.5 15.1 12.5 68 3.3 SW 22 28 12 15 1016.6 1016.6 0.0
20/07:00pm 18.9 14.0 12.4 66 3.6 SW 30 39 16 21 1016.4 1016.4 0.0
20/06:30pm 19.2 14.0 12.7 66 3.7 SW 32 39 17 21 1016.2 1016.2 0.0
20/06:00pm 20.0 15.5 12.7 63 4.1 SW 28 39 15 21 1016.0 1016.0 0.0
20/05:30pm 20.5 15.2 12.5 60 4.5 SW 32 44 17 24 1016.1 1016.1 0.0
20/05:00pm 21.5 16.1 12.9 58 4.9 SW 33 46 18 25 1016.2 1016.2 0.0
20/04:30pm 21.4 16.3 13.1 59 4.7 WSW 32 44 17 24 1016.3 1016.3 0.0
20/04:00pm 21.2 16.5 13.1 60 4.6 WSW 30 43 16 23 1016.5 1016.5 0.0
20/03:30pm 21.5 17.1 12.9 58 4.9 SW 28 43 15 23 1016.8 1016.8 0.0
20/03:00pm 21.5 17.0 12.6 57 5.0 WSW 28 39 15 21 1017.0 1017.0 0.0
20/02:30pm 20.3 16.0 12.0 59 4.6 WSW 26 41 14 22 1017.3 1017.3 0.0
20/02:00pm 19.8 15.7 12.8 64 3.9 SW 26 35 14 19 1017.5 1017.5 0.0
20/01:30pm 19.3 15.5 11.1 59 4.5 W 22 35 12 19 1017.5 1017.5 0.0
20/01:00pm 18.8 14.4 11.6 63 3.9 WSW 26 35 14 19 1017.7 1017.7 0.0
20/12:30pm 18.6 14.3 10.9 61 4.2 W 24 32 13 17 1017.8 1017.8 0.0
20/12:00pm 19.4 15.6 11.2 59 4.5 W 22 30 12 16 1017.9 1017.9 0.0
20/11:30am 19.3 14.8 11.3 60 4.4 W 26 35 14 19 1018.0 1018.0 0.0
20/11:00am 17.9 13.6 10.8 63 3.8 W 24 32 13 17 1018.1 1018.1 0.0
20/10:30am 18.2 14.0 11.0 63 3.9 W 24 33 13 18 1018.0 1018.0 0.0
20/10:00am 18.0 14.6 11.1 64 3.7 W 20 28 11 15 1018.0 1018.0 0.0
20/09:30am 17.1 13.5 10.5 65 3.5 WNW 20 32 11 17 1018.1 1018.1 0.0

Other Formats:

Comma delimited format used in spreadsheet applications
http://www.bom.gov.au/fwo/IDV60801/IDV60801.95890.axf

JavaScript Object Notation format (JSON) in row-major order
http://www.bom.gov.au/fwo/IDV60801/IDV60801.95890.json